Time;durP1;ratioP1;P1;durP2;ratioP2;P2;SDS_P1;SDS_P2;PMS_P1;PMS_P2;Temp;Humidity;BMP_temperature;BMP_pressure;BME280_temperature;BME280_humidity;BME280_pressure;Samples;Min_cycle;Max_cycle;Signal;HPM_P1;HPM_P2
2022/07/11 00:02:03;;;;;;;2.70;1.88;;;16.10;1.00;;;;;;4978290;28;20034;-80
2022/07/11 00:04:29;;;;;;;5.30;2.13;;;16.10;1.00;;;;;;4977944;28;20033;-80
2022/07/11 00:06:55;;;;;;;6.82;2.38;;;16.10;1.00;;;;;;4978025;28;20050;-79
2022/07/11 00:09:21;;;;;;;5.07;2.08;;;16.10;1.00;;;;;;4978038;28;20027;-80
2022/07/11 00:11:48;;;;;;;4.97;1.98;;;16.00;1.00;;;;;;4978105;28;20030;-80
2022/07/11 00:14:14;;;;;;;6.25;2.33;;;16.00;1.00;;;;;;4978278;28;20034;-79
2022/07/11 00:16:39;;;;;;;3.85;2.55;;;15.90;1.00;;;;;;4978054;28;20019;-80
2022/07/11 00:19:05;;;;;;;7.57;2.28;;;15.90;1.00;;;;;;4977753;28;20097;-80
2022/07/11 00:21:33;;;;;;;8.20;2.35;;;15.90;1.00;;;;;;4977645;28;20023;-79
2022/07/11 00:23:59;;;;;;;7.25;2.20;;;15.90;1.00;;;;;;4977796;28;20102;-79
2022/07/11 00:26:25;;;;;;;4.43;2.40;;;15.90;1.00;;;;;;4978081;28;20150;-80
2022/07/11 00:28:50;;;;;;;8.23;2.65;;;15.90;1.00;;;;;;4977582;28;20386;-79
2022/07/11 00:31:16;;;;;;;6.72;2.50;;;15.90;1.00;;;;;;4977629;28;20394;-80
2022/07/11 00:33:41;;;;;;;3.88;2.20;;;15.90;1.00;;;;;;4977809;28;20030;-80
2022/07/11 00:36:07;;;;;;;6.22;2.30;;;15.80;1.00;;;;;;4991244;28;20026;-80
2022/07/11 00:38:42;;;;;;;5.35;2.42;;;16.00;1.00;;;;;;4977468;28;20533;-80
2022/07/11 00:41:09;;;;;;;4.97;2.10;;;15.80;1.00;;;;;;4982891;28;20141;-80
2022/07/11 00:43:36;;;;;;;4.43;2.13;;;15.80;1.00;;;;;;4985787;28;20098;-80
2022/07/11 00:46:03;;;;;;;6.93;3.05;;;15.80;1.00;;;;;;4977511;28;20023;-80
2022/07/11 00:48:30;;;;;;;3.80;1.95;;;15.80;1.00;;;;;;4968143;28;20067;-79
2022/07/11 00:50:56;;;;;;;4.45;1.90;;;15.80;1.00;;;;;;4958023;28;20038;-79
2022/07/11 00:53:23;;;;;;;3.38;2.22;;;15.80;1.00;;;;;;4965125;28;20518;-79
2022/07/11 00:55:52;;;;;;;4.20;2.15;;;15.80;1.00;;;;;;4963968;28;20027;-80
2022/07/11 00:58:18;;;;;;;4.88;2.40;;;15.80;1.00;;;;;;4963668;28;20098;-80
2022/07/11 01:00:45;;;;;;;5.72;1.85;;;15.80;1.00;;;;;;4965562;28;20031;-80
2022/07/11 01:03:11;;;;;;;4.47;1.85;;;15.80;1.00;;;;;;4971491;28;20028;-80
2022/07/11 01:05:36;;;;;;;5.72;1.90;;;15.80;1.00;;;;;;4968127;28;20082;-80
2022/07/11 01:08:03;;;;;;;6.82;1.98;;;15.80;5.10;;;;;;4990751;28;20031;-80
2022/07/11 01:10:28;;;;;;;3.60;2.13;;;15.70;8.00;;;;;;4969431;28;20035;-80
2022/07/11 01:12:55;;;;;;;4.97;1.88;;;15.70;15.10;;;;;;4971353;28;20026;-81
2022/07/11 01:15:20;;;;;;;2.78;1.58;;;15.70;22.10;;;;;;4976912;28;20026;-81
2022/07/11 01:17:46;;;;;;;3.95;1.80;;;15.70;25.90;;;;;;4977236;28;20494;-81
2022/07/11 01:20:11;;;;;;;3.70;1.90;;;15.70;29.80;;;;;;4963527;28;20025;-80
2022/07/11 01:22:42;;;;;;;2.90;1.75;;;15.70;32.00;;;;;;4976763;28;20033;-80
2022/07/11 01:25:08;;;;;;;4.55;2.05;;;15.70;36.40;;;;;;4963038;28;20031;-80
2022/07/11 01:27:35;;;;;;;3.58;1.92;;;15.70;39.30;;;;;;4976955;28;20042;-80
2022/07/11 01:30:01;;;;;;;7.90;2.60;;;15.70;39.40;;;;;;4976780;28;20023;-80
2022/07/11 01:32:26;;;;;;;5.88;1.90;;;15.70;48.90;;;;;;4970192;28;20078;-80
2022/07/11 01:34:52;;;;;;;5.43;2.58;;;15.70;49.40;;;;;;4969302;28;20094;-80
2022/07/11 01:37:18;;;;;;;4.32;1.95;;;15.80;50.50;;;;;;4976148;28;20034;-79
2022/07/11 01:39:43;;;;;;;5.57;2.20;;;15.70;52.00;;;;;;4966136;28;20086;-80
2022/07/11 01:42:09;;;;;;;3.22;2.15;;;15.70;56.90;;;;;;4973117;28;20027;-79
2022/07/11 01:44:34;;;;;;;5.93;2.13;;;15.70;54.00;;;;;;4976150;28;20081;-80
2022/07/11 01:47:00;;;;;;;6.97;2.50;;;15.70;56.50;;;;;;4976250;28;20027;-80
2022/07/11 01:49:29;;;;;;;3.95;1.90;;;15.60;63.10;;;;;;4962477;28;20501;-79
2022/07/11 01:51:55;;;;;;;5.20;2.20;;;15.70;63.80;;;;;;4975953;28;20656;-80
2022/07/11 01:54:21;;;;;;;4.40;2.15;;;15.60;65.70;;;;;;4976266;28;20406;-80
2022/07/11 01:56:46;;;;;;;7.72;2.33;;;15.70;68.40;;;;;;4976226;28;20031;-80
2022/07/11 01:59:12;;;;;;;3.13;1.95;;;15.70;64.70;;;;;;4976141;28;20042;-80
2022/07/11 02:01:37;;;;;;;5.70;2.10;;;15.60;65.50;;;;;;4976012;28;20050;-80
2022/07/11 02:04:03;;;;;;;5.45;2.13;;;15.70;67.60;;;;;;4976244;28;20367;-80
2022/07/11 02:06:29;;;;;;;7.05;2.28;;;15.60;72.60;;;;;;4976131;28;20102;-79
2022/07/11 02:08:54;;;;;;;4.70;2.00;;;15.60;67.80;;;;;;4976075;28;20039;-79
2022/07/11 02:11:20;;;;;;;4.97;2.17;;;15.70;69.80;;;;;;4976278;28;20029;-79
2022/07/11 02:13:46;;;;;;;4.50;1.60;;;15.60;58.90;;;;;;4975919;28;20027;-80
2022/07/11 02:16:11;;;;;;;5.55;1.90;;;15.60;57.00;;;;;;4960927;28;20023;-80
2022/07/11 02:18:37;;;;;;;3.08;2.00;;;15.60;56.90;;;;;;4956876;28;20086;-80
2022/07/11 02:21:03;;;;;;;2.35;1.50;;;15.60;55.40;;;;;;4970091;28;20106;-79
2022/07/11 02:23:29;;;;;;;2.42;1.70;;;15.70;54.80;;;;;;4961720;28;20114;-79
2022/07/11 02:25:54;;;;;;;4.57;1.70;;;15.60;57.70;;;;;;4964339;28;20064;-79
2022/07/11 02:28:20;;;;;;;3.08;1.65;;;15.60;57.60;;;;;;4973904;28;20380;-80
2022/07/11 02:30:46;;;;;;;4.38;1.48;;;15.60;60.10;;;;;;4976053;28;20101;-80
2022/07/11 02:33:15;;;;;;;4.18;1.88;;;15.50;68.30;;;;;;4976018;28;20031;-80
2022/07/11 02:35:45;;;;;;;3.03;1.87;;;15.50;68.00;;;;;;4967328;28;20082;-80
2022/07/11 02:38:10;;;;;;;4.22;2.00;;;15.50;75.40;;;;;;4971060;28;20052;-80
2022/07/11 02:40:37;;;;;;;4.85;1.50;;;15.50;70.00;;;;;;4978250;28;20062;-80
2022/07/11 02:43:02;;;;;;;3.67;1.58;;;15.60;66.80;;;;;;4977279;28;20018;-80
2022/07/11 02:45:28;;;;;;;3.88;1.60;;;15.60;66.90;;;;;;4975553;28;20085;-80
2022/07/11 02:47:57;;;;;;;4.57;1.52;;;15.50;68.40;;;;;;4975830;28;20039;-79
2022/07/11 02:50:23;;;;;;;4.35;1.70;;;15.50;74.70;;;;;;4972998;28;20109;-79
2022/07/11 02:52:48;;;;;;;2.58;1.23;;;15.50;78.50;;;;;;4956131;28;20102;-80
2022/07/11 02:55:15;;;;;;;3.67;1.25;;;15.60;78.20;;;;;;4956954;28;20037;-80
2022/07/11 02:57:40;;;;;;;2.45;1.27;;;15.60;75.20;;;;;;4969262;28;20031;-79
2022/07/11 03:00:10;;;;;;;3.03;1.27;;;15.60;71.30;;;;;;4980171;28;20045;-80
2022/07/11 03:02:35;;;;;;;3.57;1.10;;;15.60;75.40;;;;;;4975834;28;20769;-80
2022/07/11 03:05:01;;;;;;;1.60;1.00;;;15.60;77.20;;;;;;4964365;28;20254;-80
2022/07/11 03:07:28;;;;;;;3.10;0.80;;;15.60;78.20;;;;;;4969289;28;20031;-80
2022/07/11 03:09:54;;;;;;;2.45;0.80;;;15.50;79.90;;;;;;4965112;28;20026;-80
2022/07/11 03:12:20;;;;;;;1.73;0.70;;;15.60;75.80;;;;;;4975209;28;20019;-81
2022/07/11 03:14:45;;;;;;;2.53;0.82;;;15.60;75.50;;;;;;4975027;28;20437;-80
2022/07/11 03:17:11;;;;;;;1.27;0.75;;;15.60;76.60;;;;;;4975362;28;20034;-80
2022/07/11 03:19:37;;;;;;;3.15;1.02;;;15.60;73.80;;;;;;4975058;28;20594;-80
2022/07/11 03:22:03;;;;;;;1.77;0.90;;;15.60;76.10;;;;;;4975024;28;20030;-80
2022/07/11 03:24:29;;;;;;;2.30;1.00;;;15.60;75.70;;;;;;4961530;28;20023;-80
2022/07/11 03:26:55;;;;;;;3.15;1.02;;;15.60;77.50;;;;;;4974829;28;20035;-80
2022/07/11 03:29:22;;;;;;;1.30;0.80;;;15.60;75.80;;;;;;4974202;28;20110;-81
2022/07/11 03:31:48;;;;;;;1.92;0.90;;;15.70;75.30;;;;;;4962391;28;20019;-81
2022/07/11 03:34:13;;;;;;;1.27;0.90;;;15.70;73.20;;;;;;4975646;28;20066;-80
2022/07/11 03:36:39;;;;;;;2.38;0.90;;;15.70;77.60;;;;;;4965017;28;20030;-80
2022/07/11 03:39:05;;;;;;;2.72;0.98;;;15.70;76.10;;;;;;4968295;28;20364;-80
2022/07/11 03:41:30;;;;;;;3.58;1.10;;;15.70;78.20;;;;;;4959459;28;20023;-80
2022/07/11 03:43:56;;;;;;;2.63;1.20;;;15.70;82.50;;;;;;4967957;28;20038;-80
2022/07/11 03:46:23;;;;;;;3.97;1.92;;;15.70;82.90;;;;;;4964292;28;20030;-81
2022/07/11 03:48:49;;;;;;;1.58;0.93;;;15.70;83.70;;;;;;4965758;28;20027;-80
2022/07/11 03:51:16;;;;;;;2.45;0.93;;;15.70;86.00;;;;;;4978368;28;20379;-81
2022/07/11 03:53:42;;;;;;;1.83;0.82;;;15.70;83.60;;;;;;4964783;28;20023;-80
2022/07/11 03:56:08;;;;;;;2.13;0.80;;;15.70;81.40;;;;;;4978532;28;20162;-80
2022/07/11 03:58:33;;;;;;;1.55;0.90;;;15.70;83.60;;;;;;4976134;28;20475;-81
2022/07/11 04:00:59;;;;;;;2.15;0.90;;;15.70;87.30;;;;;;4959197;28;20031;-80
2022/07/11 04:03:25;;;;;;;1.92;1.25;;;15.70;83.70;;;;;;4972718;28;20105;-80
2022/07/11 04:05:51;;;;;;;1.10;0.70;;;15.70;78.30;;;;;;4972391;28;20444;-80
2022/07/11 04:08:17;;;;;;;1.65;0.55;;;15.70;83.90;;;;;;4970850;28;20049;-80
2022/07/11 04:10:53;;;;;;;1.63;0.70;;;15.70;75.80;;;;;;4960108;28;20031;-81
2022/07/11 04:13:19;;;;;;;2.17;0.70;;;15.60;79.00;;;;;;4970114;28;20030;-81
2022/07/11 04:15:44;;;;;;;2.30;0.75;;;15.60;88.50;;;;;;4977962;28;20031;-81
2022/07/11 04:18:10;;;;;;;1.13;0.75;;;15.60;87.20;;;;;;4978122;28;20080;-81
2022/07/11 04:20:36;;;;;;;1.83;0.93;;;15.70;88.70;;;;;;4967870;28;20101;-80
2022/07/11 04:23:01;;;;;;;1.67;0.70;;;15.80;84.60;;;;;;4977534;28;20027;-80
2022/07/11 04:25:27;;;;;;;2.67;0.93;;;15.80;79.00;;;;;;4977304;28;20390;-80
2022/07/11 04:27:52;;;;;;;1.88;0.85;;;15.80;74.90;;;;;;4977662;28;20027;-80
2022/07/11 04:30:18;;;;;;;2.25;0.90;;;15.90;75.70;;;;;;4978191;28;20050;-80
2022/07/11 04:32:43;;;;;;;1.40;0.50;;;15.90;76.30;;;;;;4977231;28;20038;-81
2022/07/11 04:35:09;;;;;;;2.45;0.85;;;15.80;80.70;;;;;;4976565;28;20387;-81
2022/07/11 04:37:35;;;;;;;1.50;0.40;;;16.00;76.10;;;;;;4977019;28;20512;-80
2022/07/11 04:40:00;;;;;;;2.30;0.70;;;15.90;74.30;;;;;;4977102;28;20026;-80
2022/07/11 04:42:26;;;;;;;2.28;0.70;;;15.90;63.30;;;;;;4977269;28;20037;-80
2022/07/11 04:44:51;;;;;;;1.45;0.70;;;15.90;60.80;;;;;;4976746;28;20023;-80
2022/07/11 04:47:17;;;;;;;3.00;0.63;;;15.90;53.10;;;;;;4964011;28;20067;-80
2022/07/11 04:49:46;;;;;;;1.38;0.63;;;16.00;64.30;;;;;;4957662;28;20023;-80
2022/07/11 04:52:12;;;;;;;0.73;0.65;;;16.00;59.60;;;;;;4957827;28;20019;-80
2022/07/11 04:54:38;;;;;;;3.03;0.80;;;16.00;45.30;;;;;;4957774;28;20106;-80
2022/07/11 04:57:04;;;;;;;0.88;0.80;;;16.10;41.30;;;;;;4957613;28;20111;-80
2022/07/11 04:59:29;;;;;;;2.85;0.75;;;16.30;32.60;;;;;;4957431;28;20028;-80
2022/07/11 05:01:55;;;;;;;2.25;0.65;;;16.50;5.40;;;;;;4957253;28;20039;-79
2022/07/11 05:04:20;;;;;;;1.48;0.50;;;16.70;1.00;;;;;;4957415;28;20023;-79
2022/07/11 05:06:46;;;;;;;0.50;0.47;;;16.80;1.00;;;;;;4971346;28;20058;-80
2022/07/11 05:09:12;;;;;;;1.08;0.38;;;17.10;1.00;;;;;;4976357;28;20499;-79
2022/07/11 05:11:38;;;;;;;0.93;0.60;;;17.20;1.00;;;;;;4976471;28;20106;-80
2022/07/11 05:14:03;;;;;;;0.77;0.50;;;17.10;1.00;;;;;;4976535;28;20051;-80
2022/07/11 05:16:29;;;;;;;0.43;0.30;;;16.70;1.00;;;;;;4976473;28;20034;-79
2022/07/11 05:18:55;;;;;;;0.45;0.30;;;16.40;1.00;;;;;;4976501;28;20031;-80
2022/07/11 05:21:23;;;;;;;0.88;0.20;;;16.30;1.00;;;;;;4976378;28;20073;-80
2022/07/11 05:23:50;;;;;;;0.65;0.40;;;16.30;1.00;;;;;;4976251;28;20023;-79
2022/07/11 05:26:16;;;;;;;0.35;0.25;;;16.30;1.00;;;;;;4976304;28;20034;-80
2022/07/11 05:28:42;;;;;;;0.75;0.50;;;16.50;1.00;;;;;;4976174;28;20073;-79
2022/07/11 05:31:07;;;;;;;0.57;0.45;;;16.50;1.00;;;;;;4976303;28;20108;-80
2022/07/11 05:33:34;;;;;;;1.05;0.47;;;16.40;1.00;;;;;;4975888;28;20110;-80
2022/07/11 05:36:03;;;;;;;1.92;0.45;;;16.50;1.00;;;;;;4975914;28;20047;-80
2022/07/11 05:38:29;;;;;;;2.20;0.52;;;16.50;1.00;;;;;;4975887;28;20027;-80
2022/07/11 05:40:54;;;;;;;2.15;0.45;;;16.70;1.00;;;;;;4976066;28;20520;-80
2022/07/11 05:43:20;;;;;;;1.08;0.30;;;16.70;1.00;;;;;;4975798;28;20507;-80
2022/07/11 05:45:45;;;;;;;1.58;0.30;;;16.90;1.00;;;;;;4976043;28;20026;-80
2022/07/11 05:48:11;;;;;;;0.60;0.50;;;17.20;1.00;;;;;;4975845;28;20395;-80
2022/07/11 05:50:37;;;;;;;2.20;0.47;;;18.00;1.00;;;;;;4976158;28;20027;-79
2022/07/11 05:53:02;;;;;;;1.42;0.40;;;19.70;1.00;;;;;;4974380;28;20050;-79
2022/07/11 05:55:29;;;;;;;0.65;0.30;;;23.40;99.90;;;;;;4962237;28;20482;-79
2022/07/11 05:57:54;;;;;;;0.50;0.30;;;23.20;99.90;;;;;;4974962;28;20041;-79
2022/07/11 06:00:22;;;;;;;0.80;0.20;;;21.00;99.90;;;;;;4975666;28;20022;-80
2022/07/11 06:02:48;;;;;;;0.30;0.20;;;20.00;99.90;;;;;;4975837;28;20053;-79
2022/07/11 06:05:14;;;;;;;0.57;0.30;;;19.10;99.90;;;;;;4960367;28;20055;-79
2022/07/11 06:10:24;;;;;;;0.85;0.50;;;18.10;1.00;;;;;;4961651;28;20624;-79
2022/07/11 06:12:49;;;;;;;1.10;0.30;;;17.90;1.00;;;;;;4975303;28;20466;-80
2022/07/11 06:15:15;;;;;;;0.93;0.20;;;18.00;1.00;;;;;;4975278;28;20050;-80
2022/07/11 06:17:41;;;;;;;1.02;0.30;;;18.10;1.00;;;;;;4969452;28;20082;-80
2022/07/11 06:20:08;;;;;;;2.47;0.40;;;18.00;1.00;;;;;;4967160;28;20386;-80
2022/07/11 06:22:33;;;;;;;1.75;0.30;;;18.00;1.00;;;;;;4975126;28;20131;-80
2022/07/11 06:24:59;;;;;;;1.08;0.30;;;18.10;1.00;;;;;;4965229;28;20060;-79
2022/07/11 06:27:25;;;;;;;0.63;0.30;;;18.20;1.00;;;;;;4969135;28;20049;-80
2022/07/11 06:29:50;;;;;;;0.70;0.20;;;18.50;99.90;;;;;;4963317;28;20019;-80
2022/07/11 06:32:16;;;;;;;0.30;0.28;;;19.10;99.90;;;;;;4961643;28;20027;-80
2022/07/11 06:34:42;;;;;;;0.25;0.20;;;19.50;99.90;;;;;;4974705;28;20061;-80
2022/07/11 06:37:07;;;;;;;0.55;0.20;;;19.30;99.90;;;;;;4975049;28;20027;-80
2022/07/11 06:39:33;;;;;;;0.28;0.10;;;19.50;99.90;;;;;;4971006;28;20184;-80
2022/07/11 06:41:59;;;;;;;2.63;1.00;;;18.70;99.90;;;;;;4965191;28;20085;-80
2022/07/11 06:44:24;;;;;;;1.02;0.30;;;18.40;99.90;;;;;;4974867;28;20498;-79
2022/07/11 06:46:50;;;;;;;0.68;0.20;;;18.60;99.90;;;;;;4967304;28;20392;-80
2022/07/11 06:49:16;;;;;;;0.30;0.20;;;19.70;99.90;;;;;;4954461;28;20050;-79
2022/07/11 06:51:41;;;;;;;0.52;0.10;;;21.70;99.90;;;;;;4972815;28;20034;-80
2022/07/11 06:54:07;;;;;;;0.20;0.10;;;21.40;99.90;;;;;;4961696;28;20030;-79
2022/07/11 06:56:32;;;;;;;0.73;0.30;;;21.20;99.90;;;;;;4973673;28;20029;-79
2022/07/11 06:58:58;;;;;;;0.47;0.20;;;22.40;99.90;;;;;;4973394;28;20031;-79
2022/07/11 07:01:24;;;;;;;0.30;0.17;;;26.20;99.90;;;;;;4973828;28;20027;-79
2022/07/11 07:03:49;;;;;;;0.22;0.10;;;30.20;99.90;;;;;;4973933;28;20026;-79
2022/07/11 07:06:15;;;;;;;0.57;0.20;;;28.60;99.90;;;;;;4972175;28;20070;-80
2022/07/11 07:08:41;;;;;;;0.38;0.30;;;25.30;99.90;;;;;;4954338;28;20086;-79
2022/07/11 07:11:06;;;;;;;0.10;0.10;;;22.90;99.90;;;;;;4954663;28;20091;-80
2022/07/11 07:13:32;;;;;;;0.30;0.10;;;21.10;99.90;;;;;;4954387;28;20033;-79
2022/07/11 07:15:58;;;;;;;0.50;0.10;;;20.70;99.90;;;;;;4954466;28;20023;-79
2022/07/11 07:18:24;;;;;;;0.25;0.10;;;20.70;99.90;;;;;;4954316;28;20360;-79
2022/07/11 07:20:51;;;;;;;0.10;0.10;;;20.30;99.90;;;;;;4954341;28;20464;-79
2022/07/11 07:23:16;;;;;;;0.10;0.10;;;20.30;99.90;;;;;;4953982;28;20348;-79
2022/07/11 07:25:42;;;;;;;0.25;0.20;;;20.80;99.90;;;;;;4954082;28;20035;-80
2022/07/11 07:28:08;;;;;;;0.10;0.10;;;20.80;99.90;;;;;;4954251;28;20531;-80
2022/07/11 07:30:34;;;;;;;0.10;0.10;;;20.60;99.90;;;;;;4967806;28;20103;-80
2022/07/11 07:33:00;;;;;;;0.55;0.20;;;21.90;99.90;;;;;;4973598;28;20019;-80
2022/07/11 07:35:26;;;;;;;0.40;0.15;;;21.80;99.90;;;;;;4962829;28;20525;-80
2022/07/11 07:37:52;;;;;;;0.65;0.20;;;23.80;99.90;;;;;;4954438;28;20067;-80
2022/07/11 07:40:18;;;;;;;1.42;0.20;;;24.00;99.90;;;;;;4954109;28;20027;-80
2022/07/11 07:42:43;;;;;;;1.17;0.20;;;23.60;99.90;;;;;;4963755;28;20110;-80
2022/07/11 07:45:09;;;;;;;0.22;0.10;;;23.30;99.90;;;;;;4973495;28;20383;-80
2022/07/11 07:47:36;;;;;;;0.13;0.10;;;23.70;99.90;;;;;;4973352;28;20037;-79
2022/07/11 07:50:02;;;;;;;0.10;0.10;;;21.40;99.90;;;;;;4973445;28;20351;-79
2022/07/11 07:52:28;;;;;;;0.25;0.10;;;21.30;99.90;;;;;;4965704;28;20024;-80
2022/07/11 07:54:53;;;;;;;0.30;0.10;;;22.50;99.90;;;;;;4954414;28;20026;-80
2022/07/11 07:57:19;;;;;;;0.10;0.10;;;24.40;99.90;;;;;;4973867;28;20031;-80
2022/07/11 07:59:44;;;;;;;0.25;0.20;;;28.90;99.90;;;;;;4973981;28;20027;-81
2022/07/11 08:02:10;;;;;;;1.38;0.20;;;32.90;99.90;;;;;;4973831;28;20078;-81
2022/07/11 08:04:36;;;;;;;0.20;0.20;;;34.30;99.90;;;;;;4974075;28;20094;-80
2022/07/11 08:07:02;;;;;;;2.28;0.32;;;30.00;99.90;;;;;;4974616;28;20507;-80
2022/07/11 08:09:28;;;;;;;1.08;0.25;;;32.30;99.90;;;;;;4973404;28;20066;-81
2022/07/11 08:11:54;;;;;;;2.28;0.43;;;29.80;99.90;;;;;;4973769;28;20022;-80
2022/07/11 08:14:20;;;;;;;1.13;0.20;;;28.20;99.90;;;;;;4973705;28;20027;-81
2022/07/11 08:16:47;;;;;;;2.92;0.50;;;30.50;99.90;;;;;;4974022;28;20457;-81
2022/07/11 08:19:13;;;;;;;0.73;0.20;;;31.80;99.90;;;;;;4974267;28;20027;-81
2022/07/11 08:21:39;;;;;;;0.22;0.10;;;33.00;99.90;;;;;;4976515;28;20026;-81
2022/07/11 08:24:05;;;;;;;0.10;0.00;;;29.50;99.90;;;;;;4977166;28;20537;-80
2022/07/11 08:26:31;;;;;;;0.10;0.10;;;25.80;99.90;;;;;;4977005;28;20586;-81
2022/07/11 08:28:57;;;;;;;2.05;0.60;;;24.50;99.90;;;;;;4976866;28;20106;-81
2022/07/11 08:31:23;;;;;;;9.15;1.02;;;23.80;99.90;;;;;;4975627;28;20482;-81
2022/07/11 08:33:48;;;;;;;0.60;0.03;;;23.40;99.90;;;;;;4976405;28;20104;-80
2022/07/11 08:36:14;;;;;;;0.10;0.10;;;22.40;99.90;;;;;;4976419;28;20058;-80
2022/07/11 08:38:43;;;;;;;1.30;0.20;;;21.60;99.90;;;;;;4977111;28;20031;-81
2022/07/11 08:41:11;;;;;;;1.00;0.20;;;21.50;99.90;;;;;;4976742;28;20497;-81
2022/07/11 08:43:36;;;;;;;0.85;0.22;;;21.60;99.90;;;;;;4976508;28;20030;-81
2022/07/11 08:46:02;;;;;;;0.70;0.20;;;21.50;99.90;;;;;;4977810;28;20387;-80
2022/07/11 08:48:29;;;;;;;0.65;0.45;;;22.90;99.90;;;;;;4976815;28;20129;-81
2022/07/11 08:50:55;;;;;;;1.27;0.40;;;25.30;99.90;;;;;;4976414;28;20027;-81
2022/07/11 08:53:21;;;;;;;0.65;0.17;;;29.50;99.90;;;;;;4976279;28;20019;-81
2022/07/11 08:55:47;;;;;;;0.20;0.20;;;29.40;99.90;;;;;;4976307;28;20041;-81
2022/07/11 08:58:13;;;;;;;2.13;0.52;;;26.30;99.90;;;;;;4976340;28;20030;-81
2022/07/11 09:00:40;;;;;;;9.48;1.10;;;24.70;99.90;;;;;;4976232;28;20023;-80
2022/07/11 09:03:07;;;;;;;2.22;0.28;;;24.20;99.90;;;;;;4975863;28;20030;-80
2022/07/11 09:05:33;;;;;;;0.40;0.25;;;23.80;99.90;;;;;;4972219;28;20133;-80
2022/07/11 09:07:58;;;;;;;1.35;0.20;;;23.50;99.90;;;;;;4966151;28;20413;-80
2022/07/11 09:10:24;;;;;;;0.10;0.10;;;23.70;99.90;;;;;;4962582;28;20047;-80
2022/07/11 09:13:15;;;;;;;0.05;0.05;;;23.20;99.90;;;;;;4967866;28;20027;-80
2022/07/11 09:15:45;;;;;;;0.10;0.10;;;23.30;99.90;;;;;;4973420;28;20027;-80
2022/07/11 09:18:30;;;;;;;0.43;0.35;;;23.60;99.90;;;;;;4975859;28;20081;-80
2022/07/11 09:26:32;;;;;;;1.13;0.20;;;26.40;99.90;;;;;;4962721;28;20077;-80
2022/07/11 09:29:03;;;;;;;3.40;0.85;;;28.80;99.90;;;;;;4975577;28;20109;-80
2022/07/11 09:31:30;;;;;;;6.95;0.88;;;26.80;99.90;;;;;;4974525;28;20367;-80
2022/07/11 09:34:09;;;;;;;3.67;0.40;;;25.60;99.90;;;;;;4974913;28;20026;-80
2022/07/11 09:36:35;;;;;;;5.35;0.60;;;24.90;99.90;;;;;;4975089;28;20018;-80
2022/07/11 09:39:06;;;;;;;4.57;0.70;;;24.10;99.90;;;;;;4975191;28;20027;-80
2022/07/11 09:41:33;;;;;;;2.50;0.30;;;24.30;99.90;;;;;;4975261;28;20023;-80
2022/07/11 09:44:10;;;;;;;20.50;3.08;;;27.10;99.90;;;;;;4975822;28;20033;-79
2022/07/11 09:46:36;;;;;;;2.90;0.60;;;27.40;99.90;;;;;;4975239;28;20039;-79
2022/07/11 09:49:02;;;;;;;0.73;0.20;;;26.50;99.90;;;;;;4975211;28;20031;-79
2022/07/11 09:51:29;;;;;;;0.30;0.20;;;26.70;99.90;;;;;;4975026;28;20538;-79
2022/07/11 09:53:57;;;;;;;0.10;0.10;;;25.90;99.90;;;;;;4963601;28;20014;-80
2022/07/11 09:56:33;;;;;;;0.40;0.10;;;25.50;99.90;;;;;;4955788;28;20053;-79
2022/07/11 09:59:04;;;;;;;0.20;0.20;;;25.30;99.90;;;;;;4974710;28;20514;-79
2022/07/11 10:01:31;;;;;;;1.52;0.38;;;25.80;99.90;;;;;;4974893;28;20018;-80
2022/07/11 10:03:58;;;;;;;2.17;0.38;;;25.40;99.90;;;;;;4974615;28;20118;-79
2022/07/11 10:06:24;;;;;;;1.02;0.50;;;24.80;99.90;;;;;;4974609;28;20407;-80
2022/07/11 10:08:53;;;;;;;2.15;0.25;;;25.10;99.90;;;;;;4974477;28;20089;-79
2022/07/11 10:11:20;;;;;;;0.75;0.30;;;25.20;99.90;;;;;;4974576;28;20022;-80
2022/07/11 10:13:46;;;;;;;0.30;0.30;;;25.30;99.90;;;;;;4974282;28;20055;-80
2022/07/11 10:16:29;;;;;;;0.38;0.20;;;24.80;99.90;;;;;;4967015;28;20065;-79
2022/07/11 10:19:19;;;;;;;0.60;0.15;;;25.30;99.90;;;;;;4974446;28;20030;-79
2022/07/11 10:22:02;;;;;;;0.32;0.20;;;25.60;99.90;;;;;;4974569;28;20102;-79
2022/07/11 10:24:55;;;;;;;0.85;0.20;;;25.50;99.90;;;;;;4955009;28;20027;-79
2022/07/11 10:27:42;;;;;;;1.00;0.30;;;25.20;99.90;;;;;;4954602;28;20044;-79
2022/07/11 10:30:08;;;;;;;0.63;0.38;;;24.40;99.90;;;;;;4955274;28;20019;-79
2022/07/11 10:33:04;;;;;;;0.65;0.32;;;23.80;99.90;;;;;;4954711;28;20337;-79
2022/07/11 10:35:30;;;;;;;0.65;0.40;;;24.10;99.90;;;;;;4954541;28;20075;-79
2022/07/11 10:37:58;;;;;;;0.73;0.40;;;24.30;99.90;;;;;;4972643;28;20113;-80
2022/07/11 10:40:43;;;;;;;0.75;0.28;;;24.20;99.90;;;;;;4974393;28;20430;-80
2022/07/11 10:43:09;;;;;;;0.20;0.20;;;24.00;99.90;;;;;;4973573;28;20492;-80
2022/07/11 10:46:02;;;;;;;0.43;0.30;;;23.90;99.90;;;;;;4974280;28;20027;-80
2022/07/11 10:48:30;;;;;;;1.27;0.40;;;24.00;99.90;;;;;;4953402;28;20054;-79
2022/07/11 10:51:16;;;;;;;1.15;0.40;;;23.90;99.90;;;;;;4954566;28;20032;-79
2022/07/11 10:53:49;;;;;;;0.90;0.40;;;24.10;99.90;;;;;;4972509;28;20045;-80
2022/07/11 10:56:40;;;;;;;0.82;0.30;;;24.70;99.90;;;;;;4972693;28;20458;-80
2022/07/11 10:59:14;;;;;;;1.27;0.50;;;24.40;99.90;;;;;;4961212;28;20027;-80
2022/07/11 11:02:12;;;;;;;0.35;0.35;;;24.60;99.90;;;;;;4974174;28;20018;-79
2022/07/11 11:04:44;;;;;;;0.20;0.20;;;24.40;99.90;;;;;;4964350;28;20521;-80
2022/07/11 11:07:38;;;;;;;0.38;0.20;;;24.60;99.90;;;;;;4973655;28;20038;-80
2022/07/11 11:10:32;;;;;;;0.88;0.30;;;24.40;99.90;;;;;;4973912;28;20046;-80
2022/07/11 11:13:10;;;;;;;0.43;0.40;;;24.60;99.90;;;;;;4954241;28;20056;-80
2022/07/11 11:15:51;;;;;;;0.50;0.20;;;25.00;99.90;;;;;;4954709;28;20023;-80
2022/07/11 11:18:23;;;;;;;1.00;0.30;;;24.60;99.90;;;;;;4955014;28;20071;-80
2022/07/11 11:21:00;;;;;;;0.38;0.32;;;24.30;99.90;;;;;;4954753;28;20023;-80
2022/07/11 11:23:30;;;;;;;1.00;0.40;;;24.90;99.90;;;;;;4954466;28;20027;-79
2022/07/11 11:26:04;;;;;;;0.50;0.40;;;24.90;99.90;;;;;;4954151;28;20051;-79
2022/07/11 11:28:30;;;;;;;0.30;0.30;;;25.10;99.90;;;;;;4973541;28;20038;-80
2022/07/11 11:30:57;;;;;;;0.30;0.30;;;24.80;99.90;;;;;;4973759;28;20080;-79
2022/07/11 11:33:26;;;;;;;0.43;0.28;;;24.60;99.90;;;;;;4973855;28;20035;-80
2022/07/11 11:36:12;;;;;;;1.10;0.47;;;25.00;99.90;;;;;;4973462;28;20331;-80
2022/07/11 11:38:40;;;;;;;0.30;0.30;;;24.40;99.90;;;;;;4973479;28;20034;-80
2022/07/11 11:41:06;;;;;;;0.30;0.20;;;24.30;99.90;;;;;;4973596;28;20032;-79
2022/07/11 11:43:35;;;;;;;0.20;0.20;;;25.10;99.90;;;;;;4972320;28;20031;-80
2022/07/11 11:46:02;;;;;;;0.93;0.35;;;25.20;99.90;;;;;;4973451;28;20042;-80
2022/07/11 11:48:35;;;;;;;0.60;0.40;;;25.00;99.90;;;;;;4973656;28;20528;-79
2022/07/11 11:51:05;;;;;;;0.30;0.30;;;25.50;99.90;;;;;;4982322;28;20655;-80
2022/07/11 11:53:54;;;;;;;;;;;25.10;99.90;;;;;;4976984;28;20077;-80
2022/07/11 11:56:21;;;;;;;0.47;0.40;;;25.30;99.90;;;;;;4971040;28;19906;-80
2022/07/11 11:58:48;;;;;;;1.15;0.40;;;25.20;99.90;;;;;;4977194;28;20502;-80
2022/07/11 12:01:20;;;;;;;14.23;1.83;;;25.60;99.90;;;;;;4966928;28;20513;-80
2022/07/11 12:03:54;;;;;;;1.30;0.50;;;25.80;99.90;;;;;;4974445;28;20406;-79
2022/07/11 12:06:34;;;;;;;0.70;0.70;;;25.90;99.90;;;;;;4976864;28;20505;-80
2022/07/11 12:09:05;;;;;;;9.40;1.92;;;25.20;99.90;;;;;;4972743;28;20035;-80
2022/07/11 12:11:32;;;;;;;1.38;0.88;;;24.90;99.90;;;;;;4968386;28;20019;-80
2022/07/11 12:14:05;;;;;;;0.80;0.30;;;24.70;99.90;;;;;;4977143;28;20034;-79
2022/07/11 12:16:41;;;;;;;1.08;0.50;;;24.70;99.90;;;;;;4977423;28;20026;-80
2022/07/11 12:19:15;;;;;;;1.13;0.50;;;25.20;99.90;;;;;;4977082;28;20035;-80
2022/07/11 12:21:45;;;;;;;1.15;0.68;;;25.80;99.90;;;;;;4976731;28;20134;-79
2022/07/11 12:24:15;;;;;;;3.00;1.00;;;25.20;99.90;;;;;;4976572;28;20026;-79
2022/07/11 12:26:42;;;;;;;1.80;1.00;;;25.00;99.90;;;;;;4976810;28;20023;-79
2022/07/11 12:29:11;;;;;;;1.80;0.95;;;24.60;99.90;;;;;;4974655;28;20691;-80
2022/07/11 12:31:48;;;;;;;0.80;0.60;;;24.90;99.90;;;;;;4965658;28;20045;-80
2022/07/11 12:34:18;;;;;;;2.00;1.27;;;24.80;99.90;;;;;;4976086;28;20053;-80
2022/07/11 12:36:45;;;;;;;1.10;1.00;;;25.00;99.90;;;;;;4976455;28;20490;-80
2022/07/11 12:39:23;;;;;;;0.98;0.88;;;25.00;99.90;;;;;;4962942;28;20106;-79
2022/07/11 12:41:50;;;;;;;0.80;0.80;;;25.20;99.90;;;;;;4976751;28;20363;-80
2022/07/11 12:47:08;;;;;;;2.08;0.82;;;25.20;99.90;;;;;;4976519;28;20042;-79
2022/07/11 12:49:34;;;;;;;2.17;0.98;;;25.90;99.90;;;;;;4976453;28;20449;-79
2022/07/11 12:52:02;;;;;;;0.80;0.80;;;25.70;99.90;;;;;;4976351;28;20026;-80
2022/07/11 12:54:33;;;;;;;1.50;0.70;;;25.50;99.90;;;;;;4976253;28;20027;-79
2022/07/11 12:57:01;;;;;;;2.63;0.82;;;25.60;99.90;;;;;;4976212;28;20015;-79
2022/07/11 12:59:28;;;;;;;6.68;1.05;;;25.10;99.90;;;;;;4976455;28;20458;-80
2022/07/11 13:02:06;;;;;;;5.35;1.52;;;24.80;99.90;;;;;;4976216;28;20031;-79
2022/07/11 13:04:48;;;;;;;12.52;3.50;;;25.10;99.90;;;;;;4976262;28;20023;-80